createdAt,value
2018-09-15T00:00:52.701Z,0.00
2018-09-15T00:01:52.718Z,0.00
2018-09-15T00:02:52.748Z,0.00
2018-09-15T00:03:52.751Z,0.00
2018-09-15T00:04:52.776Z,0.00
2018-09-15T00:05:52.789Z,0.00
2018-09-15T00:06:52.804Z,0.00
2018-09-15T00:07:52.824Z,0.00
2018-09-15T00:08:52.842Z,0.00
2018-09-15T00:09:52.861Z,0.00
2018-09-15T00:10:52.888Z,0.00
2018-09-15T00:11:52.899Z,0.00
2018-09-15T00:12:52.911Z,0.00
2018-09-15T00:13:52.927Z,0.00
2018-09-15T00:14:52.954Z,0.00
2018-09-15T00:15:52.969Z,0.00
2018-09-15T00:16:52.984Z,0.00
2018-09-15T00:17:52.999Z,0.00
2018-09-15T00:18:53.026Z,0.00
2018-09-15T00:19:53.029Z,0.00
2018-09-15T00:20:53.059Z,0.00
2018-09-15T00:21:53.071Z,0.00
2018-09-15T00:22:53.160Z,0.00
2018-09-15T00:23:53.108Z,0.00
2018-09-15T00:24:53.121Z,0.00
2018-09-15T00:25:53.145Z,0.00
2018-09-15T00:26:53.157Z,0.00
2018-09-15T00:27:53.168Z,0.00
2018-09-15T00:28:53.192Z,0.00
2018-09-15T00:29:53.207Z,0.00
2018-09-15T00:30:53.245Z,0.00
2018-09-15T00:31:53.242Z,0.00
2018-09-15T00:32:53.258Z,0.00
2018-09-15T00:33:53.275Z,0.00
2018-09-15T00:34:53.294Z,0.00
2018-09-15T00:35:53.310Z,0.00
2018-09-15T00:36:53.335Z,0.00
2018-09-15T00:37:53.349Z,0.00
2018-09-15T00:38:53.424Z,0.00
2018-09-15T00:39:53.386Z,0.00
2018-09-15T00:40:53.398Z,0.00
2018-09-15T00:41:53.442Z,0.00
2018-09-15T00:42:53.435Z,0.00
2018-09-15T00:43:53.454Z,0.00
2018-09-15T00:44:53.485Z,0.00
2018-09-15T00:45:53.489Z,0.00
2018-09-15T00:46:53.510Z,0.00
2018-09-15T00:47:53.528Z,0.00
2018-09-15T00:48:53.542Z,0.00
2018-09-15T00:49:53.556Z,0.00
2018-09-15T00:50:53.592Z,0.00
2018-09-15T00:51:53.597Z,0.00
2018-09-15T00:52:53.610Z,0.00
2018-09-15T00:53:53.627Z,0.00
2018-09-15T00:54:53.646Z,0.00
2018-09-15T00:55:53.660Z,0.00
2018-09-15T00:56:53.685Z,0.00
2018-09-15T00:57:53.697Z,0.00
2018-09-15T00:58:53.723Z,0.00
2018-09-15T00:59:53.739Z,0.00
2018-09-15T01:00:53.748Z,0.00
2018-09-15T01:01:53.768Z,0.00
2018-09-15T01:02:53.789Z,0.00
2018-09-15T01:03:53.804Z,0.00
2018-09-15T01:04:53.840Z,0.00
2018-09-15T01:05:53.839Z,0.00
2018-09-15T01:06:53.854Z,0.00
2018-09-15T01:07:53.871Z,0.00
2018-09-15T01:08:53.906Z,0.00
2018-09-15T01:09:53.905Z,0.00
2018-09-15T01:10:53.933Z,0.00
2018-09-15T01:11:53.954Z,0.00
2018-09-15T01:12:53.966Z,0.00
2018-09-15T01:13:54.017Z,0.00
2018-09-15T01:14:53.997Z,0.00
2018-09-15T01:15:54.027Z,0.00
2018-09-15T01:16:54.034Z,0.00
2018-09-15T01:17:54.052Z,0.00
2018-09-15T01:18:54.071Z,0.00
2018-09-15T01:19:54.118Z,0.00
2018-09-15T01:20:54.099Z,0.00
2018-09-15T01:21:54.128Z,0.00
2018-09-15T01:22:54.139Z,0.00
2018-09-15T01:23:54.157Z,0.00
2018-09-15T01:24:54.174Z,0.00
2018-09-15T01:25:54.208Z,0.00
2018-09-15T01:26:54.267Z,0.00
2018-09-15T01:27:54.232Z,0.00
2018-09-15T01:28:54.248Z,0.00
2018-09-15T01:29:54.271Z,0.00
2018-09-15T01:30:54.276Z,0.00
2018-09-15T01:31:54.300Z,0.00
2018-09-15T01:32:54.313Z,0.00
2018-09-15T01:33:54.331Z,0.00
2018-09-15T01:34:54.361Z,0.00
2018-09-15T01:35:54.375Z,0.00
2018-09-15T01:36:54.383Z,0.00
2018-09-15T01:37:54.403Z,0.00
2018-09-15T01:38:54.430Z,0.00
2018-09-15T01:39:54.488Z,0.00
2018-09-15T01:40:54.455Z,0.00
2018-09-15T01:41:54.473Z,0.00
2018-09-15T01:42:54.488Z,0.00
2018-09-15T01:43:54.507Z,0.00
2018-09-15T01:44:54.548Z,0.00
2018-09-15T01:45:54.547Z,0.00
2018-09-15T01:46:54.562Z,0.00
2018-09-15T01:47:54.578Z,0.00
2018-09-15T01:48:54.603Z,0.00
2018-09-15T01:49:54.673Z,0.00
2018-09-15T01:50:54.628Z,0.00
2018-09-15T01:51:54.648Z,0.00
2018-09-15T01:52:54.673Z,0.00
2018-09-15T01:53:54.678Z,0.00
2018-09-15T01:54:54.699Z,0.00
2018-09-15T01:55:54.714Z,0.00
2018-09-15T01:56:54.733Z,0.00
2018-09-15T01:57:54.757Z,0.00
2018-09-15T01:58:54.768Z,0.00
2018-09-15T01:59:54.781Z,0.00
2018-09-15T02:00:54.828Z,0.00
2018-09-15T02:01:54.822Z,0.00
2018-09-15T02:02:54.834Z,0.00
2018-09-15T02:03:54.853Z,0.00
2018-09-15T02:04:54.870Z,0.00
2018-09-15T02:05:54.888Z,0.00
2018-09-15T02:06:54.919Z,0.00
2018-09-15T02:07:54.924Z,0.00
2018-09-15T02:08:54.941Z,0.00
2018-09-15T02:09:54.961Z,0.00
2018-09-15T02:10:54.975Z,0.00
2018-09-15T02:11:54.994Z,0.00
2018-09-15T02:12:55.008Z,0.00
2018-09-15T02:13:55.033Z,0.00
2018-09-15T02:14:55.047Z,0.00
2018-09-15T02:15:55.068Z,0.00
2018-09-15T02:16:55.078Z,0.00
2018-09-15T02:17:55.096Z,0.00
2018-09-15T02:18:55.119Z,0.00
2018-09-15T02:19:55.133Z,0.00
2018-09-15T02:20:55.156Z,0.00
2018-09-15T02:21:55.174Z,0.00
2018-09-15T02:22:55.193Z,0.00
2018-09-15T02:23:55.203Z,0.00
2018-09-15T02:24:55.223Z,0.00
2018-09-15T02:25:55.244Z,0.00
2018-09-15T02:26:55.256Z,0.00
2018-09-15T02:27:55.267Z,0.00
2018-09-15T02:28:55.301Z,0.00
2018-09-15T02:29:55.305Z,0.00
2018-09-15T02:30:55.333Z,0.00
2018-09-15T02:31:55.343Z,0.00
2018-09-15T02:32:55.356Z,0.00
2018-09-15T02:33:55.378Z,0.00
2018-09-15T02:34:55.402Z,0.00
2018-09-15T02:35:55.420Z,0.00
2018-09-15T02:36:55.434Z,0.00
2018-09-15T02:37:55.453Z,0.00
2018-09-15T02:38:55.466Z,0.00
2018-09-15T02:39:55.482Z,0.00
2018-09-15T02:40:55.500Z,0.00
2018-09-15T02:41:55.528Z,0.00
2018-09-15T02:42:55.539Z,0.00
2018-09-15T02:43:55.549Z,0.00
2018-09-15T02:44:55.568Z,0.00
2018-09-15T02:45:55.591Z,0.00
2018-09-15T02:46:55.601Z,0.00
2018-09-15T02:47:55.623Z,0.00
2018-09-15T02:48:55.635Z,0.00
2018-09-15T02:49:55.669Z,0.00
2018-09-15T02:50:55.670Z,0.00
2018-09-15T02:51:55.684Z,0.00
2018-09-15T02:52:55.716Z,0.00
2018-09-15T02:53:55.729Z,0.00
2018-09-15T02:54:55.804Z,0.00
2018-09-15T02:55:55.755Z,0.00
2018-09-15T02:56:55.775Z,0.00
2018-09-15T02:57:55.789Z,0.00
2018-09-15T02:58:55.810Z,0.00
2018-09-15T02:59:55.825Z,0.00
2018-09-15T03:00:55.844Z,0.00
2018-09-15T03:01:55.862Z,0.00
2018-09-15T03:02:55.894Z,0.00
2018-09-15T03:03:55.902Z,0.00
2018-09-15T03:04:55.918Z,0.00
2018-09-15T03:05:55.983Z,0.00
2018-09-15T03:06:55.953Z,0.00
2018-09-15T03:07:55.967Z,0.00
2018-09-15T03:08:55.983Z,0.00
2018-09-15T03:09:56.006Z,0.00
2018-09-15T03:10:56.088Z,0.00
2018-09-15T03:11:56.035Z,0.00
2018-09-15T03:12:56.048Z,0.00
2018-09-15T03:13:56.073Z,0.00
2018-09-15T03:14:56.083Z,0.00
2018-09-15T03:15:56.106Z,0.00
2018-09-15T03:16:56.118Z,0.00
2018-09-15T03:17:56.132Z,0.00
2018-09-15T03:18:56.157Z,0.00
2018-09-15T03:19:56.170Z,0.00
2018-09-15T03:20:56.187Z,0.00
2018-09-15T03:21:56.209Z,0.00
2018-09-15T03:22:56.231Z,0.00
2018-09-15T03:23:56.236Z,0.00
2018-09-15T03:24:56.261Z,0.00
2018-09-15T03:25:56.276Z,0.00
2018-09-15T03:26:56.291Z,0.00
2018-09-15T03:27:56.304Z,0.00
2018-09-15T03:28:56.327Z,0.00
2018-09-15T03:29:56.342Z,0.00
2018-09-15T03:30:56.359Z,0.00
2018-09-15T03:31:56.379Z,0.00
2018-09-15T03:32:56.391Z,0.00
2018-09-15T03:33:56.415Z,0.00
2018-09-15T03:34:56.429Z,0.00
2018-09-15T03:35:56.446Z,0.00
2018-09-15T03:36:56.459Z,0.00
2018-09-15T03:37:56.477Z,0.00
2018-09-15T03:38:56.497Z,0.00
2018-09-15T03:39:56.515Z,0.00
2018-09-15T03:40:56.528Z,0.00
2018-09-15T03:41:56.619Z,0.00
2018-09-15T03:42:56.570Z,0.00
2018-09-15T03:43:56.588Z,0.00
2018-09-15T03:44:56.606Z,0.00
2018-09-15T03:45:56.614Z,0.00
2018-09-15T03:46:56.633Z,0.00
2018-09-15T03:47:56.643Z,0.00
2018-09-15T03:48:56.668Z,0.00
2018-09-15T03:49:56.681Z,0.00
2018-09-15T03:50:56.702Z,0.00
2018-09-15T03:51:56.721Z,0.00
2018-09-15T03:52:56.734Z,0.00
2018-09-15T03:53:56.756Z,0.00
2018-09-15T03:54:56.771Z,0.00
2018-09-15T03:55:56.787Z,0.00
2018-09-15T03:56:56.801Z,0.00
2018-09-15T03:57:56.823Z,0.00
2018-09-15T03:58:56.837Z,0.00
2018-09-15T03:59:56.883Z,0.00
2018-09-15T04:00:56.868Z,0.00
2018-09-15T04:01:56.906Z,0.00
2018-09-15T04:02:56.909Z,0.00
2018-09-15T04:03:56.921Z,0.00
2018-09-15T04:04:56.942Z,0.00
2018-09-15T04:05:56.952Z,0.00
2018-09-15T04:06:56.966Z,0.00
2018-09-15T04:07:56.993Z,0.00
2018-09-15T04:08:57.030Z,0.00
2018-09-15T04:09:57.020Z,0.00
2018-09-15T04:10:57.062Z,0.00
2018-09-15T04:11:57.051Z,0.00
2018-09-15T04:12:57.069Z,0.00
2018-09-15T04:13:57.096Z,4.00
2018-09-15T04:14:57.115Z,4.00
2018-09-15T04:15:57.120Z,4.00
2018-09-15T04:16:57.136Z,4.00
2018-09-15T04:17:57.157Z,4.00
2018-09-15T04:18:57.172Z,0.00
2018-09-15T04:19:57.193Z,0.00
2018-09-15T04:20:57.202Z,4.00
2018-09-15T04:21:57.221Z,4.00
2018-09-15T04:22:57.238Z,4.00
2018-09-15T04:23:57.256Z,4.00
2018-09-15T04:24:57.269Z,4.00
2018-09-15T04:25:57.289Z,8.00
2018-09-15T04:26:57.303Z,4.00
2018-09-15T04:27:57.323Z,8.00
2018-09-15T04:28:57.336Z,8.00
2018-09-15T04:29:57.355Z,12.00
2018-09-15T04:30:57.389Z,16.00
2018-09-15T04:31:57.395Z,16.00
2018-09-15T04:32:57.407Z,16.00
2018-09-15T04:33:57.421Z,20.00
2018-09-15T04:34:57.447Z,24.00
2018-09-15T04:35:57.462Z,32.00
2018-09-15T04:36:57.482Z,36.00
2018-09-15T04:37:57.491Z,44.00
2018-09-15T04:38:57.510Z,52.00
2018-09-15T04:39:57.525Z,64.00
2018-09-15T04:40:57.540Z,68.00
2018-09-15T04:41:57.563Z,80.00
2018-09-15T04:42:57.589Z,92.00
2018-09-15T04:43:57.591Z,108.00
2018-09-15T04:44:57.616Z,124.00
2018-09-15T04:45:57.622Z,140.00
2018-09-15T04:46:57.641Z,156.00
2018-09-15T04:47:57.664Z,172.00
2018-09-15T04:48:57.673Z,196.00
2018-09-15T04:49:57.713Z,212.00
2018-09-15T04:50:57.717Z,236.00
2018-09-15T04:51:57.743Z,260.00
2018-09-15T04:52:57.744Z,276.00
2018-09-15T04:53:57.756Z,296.00
2018-09-15T04:54:57.789Z,324.00
2018-09-15T04:55:57.792Z,364.00
2018-09-15T04:56:57.811Z,408.00
2018-09-15T04:57:57.839Z,440.00
2018-09-15T04:58:57.860Z,468.00
2018-09-15T04:59:57.877Z,504.00
2018-09-15T05:00:57.877Z,544.00
2018-09-15T05:01:57.893Z,616.00
2018-09-15T05:02:57.910Z,700.00
2018-09-15T05:03:57.925Z,780.00
2018-09-15T05:04:57.952Z,852.00
2018-09-15T05:05:57.965Z,916.00
2018-09-15T05:06:57.980Z,996.00
2018-09-15T05:07:58.004Z,1080.00
2018-09-15T05:08:58.030Z,1172.00
2018-09-15T05:09:58.043Z,1260.00
2018-09-15T05:10:58.057Z,1340.00
2018-09-15T05:11:58.067Z,1448.00
2018-09-15T05:12:58.117Z,1532.00
2018-09-15T05:13:58.106Z,1592.00
2018-09-15T05:14:58.114Z,1612.00
2018-09-15T05:15:58.143Z,1624.00
2018-09-15T05:16:58.148Z,1692.00
2018-09-15T05:17:58.165Z,1756.00
2018-09-15T05:18:58.217Z,1720.00
2018-09-15T05:19:58.234Z,1704.00
2018-09-15T05:20:58.212Z,1672.00
2018-09-15T05:21:58.238Z,1712.00
2018-09-15T05:22:58.264Z,1812.00
2018-09-15T05:23:58.267Z,1988.00
2018-09-15T05:24:58.279Z,1900.00
2018-09-15T05:25:58.302Z,1860.00
2018-09-15T05:26:58.316Z,1980.00
2018-09-15T05:27:58.332Z,1976.00
2018-09-15T05:28:58.354Z,1848.00
2018-09-15T05:29:58.368Z,1892.00
2018-09-15T05:30:58.397Z,1932.00
2018-09-15T05:31:58.405Z,2076.00
2018-09-15T05:32:58.418Z,2240.00
2018-09-15T05:33:58.432Z,2360.00
2018-09-15T05:34:58.453Z,2492.00
2018-09-15T05:35:58.472Z,2908.00
2018-09-15T05:36:58.484Z,3216.00
2018-09-15T05:37:58.510Z,3692.00
2018-09-15T05:38:58.525Z,4316.00
2018-09-15T05:39:58.562Z,5112.00
2018-09-15T05:40:58.558Z,5832.00
2018-09-15T05:41:58.568Z,10228.00
2018-09-15T05:42:58.595Z,7336.00
2018-09-15T05:43:58.603Z,7244.00
2018-09-15T05:44:58.623Z,4684.00
2018-09-15T05:45:58.644Z,4892.00
2018-09-15T05:46:58.664Z,5044.00
2018-09-15T05:47:58.675Z,5264.00
2018-09-15T05:48:58.692Z,5544.00
2018-09-15T05:49:58.713Z,5780.00
2018-09-15T05:50:58.729Z,5808.00
2018-09-15T05:51:58.745Z,9360.00
2018-09-15T05:52:58.762Z,9596.00
2018-09-15T05:53:58.779Z,9260.00
2018-09-15T05:54:58.801Z,8088.00
2018-09-15T05:55:58.843Z,7916.00
2018-09-15T05:56:58.847Z,16704.00
2018-09-15T05:57:58.848Z,21344.00
2018-09-15T05:58:58.878Z,22784.00
2018-09-15T05:59:58.890Z,24288.00
2018-09-15T06:00:58.904Z,24608.00
2018-09-15T06:01:58.949Z,24704.00
2018-09-15T06:02:58.939Z,24960.00
2018-09-15T06:03:58.962Z,25952.00
2018-09-15T06:04:58.978Z,27904.00
2018-09-15T06:05:59.002Z,32288.00
2018-09-15T06:06:59.019Z,32032.00
2018-09-15T06:07:59.044Z,30368.00
2018-09-15T06:08:59.057Z,28800.00
2018-09-15T06:09:59.076Z,28768.00
2018-09-15T06:10:59.105Z,29536.00
2018-09-15T06:11:59.115Z,29856.00
2018-09-15T06:12:59.137Z,30368.00
2018-09-15T06:13:59.163Z,31840.00
2018-09-15T06:14:59.179Z,32224.00
2018-09-15T06:15:59.201Z,32512.00
2018-09-15T06:16:59.221Z,31104.00
2018-09-15T06:17:59.256Z,30976.00
2018-09-15T06:18:59.263Z,30048.00
2018-09-15T06:19:59.283Z,30208.00
2018-09-15T06:20:59.309Z,30592.00
2018-09-15T06:21:59.327Z,32256.00
2018-09-15T06:22:59.363Z,32864.00
2018-09-15T06:23:59.371Z,34528.00
2018-09-15T06:24:59.405Z,36000.00
2018-09-15T06:25:59.436Z,35872.00
2018-09-15T06:26:59.452Z,36480.00
2018-09-15T06:27:59.466Z,37600.00
2018-09-15T06:28:59.490Z,37472.00
2018-09-15T06:29:59.519Z,37728.00
2018-09-15T06:30:59.589Z,37088.00
2018-09-15T06:31:59.559Z,37056.00
2018-09-15T06:32:59.583Z,37536.00
2018-09-15T06:33:59.603Z,36800.00
2018-09-15T06:34:59.636Z,37632.00
2018-09-15T06:35:59.653Z,39136.00
2018-09-15T06:36:59.688Z,40704.00
2018-09-15T06:37:59.696Z,41504.00
2018-09-15T06:38:59.723Z,41760.00
2018-09-15T06:39:59.745Z,40544.00
2018-09-15T06:40:59.772Z,41568.00
2018-09-15T06:41:59.798Z,39936.00
2018-09-15T06:42:59.833Z,40800.00
2018-09-15T06:43:59.855Z,40384.00
2018-09-15T06:44:59.869Z,42560.00
2018-09-15T06:45:59.909Z,44064.00
2018-09-15T06:46:59.921Z,43712.00
2018-09-15T06:47:59.940Z,42528.00
2018-09-15T06:48:59.968Z,43104.00
2018-09-15T06:49:59.993Z,42720.00
2018-09-15T06:51:00.015Z,42848.00
2018-09-15T06:52:00.041Z,41984.00
2018-09-15T06:53:00.066Z,40160.00
2018-09-15T06:54:00.094Z,40736.00
2018-09-15T06:55:00.120Z,41856.00
2018-09-15T06:56:00.145Z,43616.00
2018-09-15T06:57:00.164Z,45856.00
2018-09-15T06:58:00.196Z,46176.00
2018-09-15T06:59:00.215Z,46464.00
2018-09-15T07:00:00.241Z,45664.00
2018-09-15T07:01:00.274Z,38912.00
2018-09-15T07:02:00.298Z,15620.00
2018-09-15T07:03:00.323Z,45728.00
2018-09-15T07:04:00.347Z,44736.00
2018-09-15T07:05:00.385Z,43776.00
2018-09-15T07:06:00.411Z,43872.00
2018-09-15T07:07:00.503Z,43936.00
2018-09-15T07:08:00.475Z,43872.00
2018-09-15T07:09:00.480Z,42624.00
2018-09-15T07:10:00.515Z,39136.00
2018-09-15T07:11:00.522Z,43424.00
2018-09-15T07:12:00.547Z,43712.00
2018-09-15T07:13:00.628Z,44768.00
2018-09-15T07:14:00.593Z,43904.00
2018-09-15T07:15:00.622Z,44064.00
2018-09-15T07:16:00.650Z,45856.00
2018-09-15T07:17:00.682Z,46208.00
2018-09-15T07:18:00.701Z,45408.00
2018-09-15T07:19:00.726Z,43136.00
2018-09-15T07:20:00.754Z,36640.00
2018-09-15T07:21:00.778Z,35488.00
2018-09-15T07:22:00.799Z,40000.00
2018-09-15T07:23:00.825Z,41120.00
2018-09-15T07:24:00.845Z,32768.00
2018-09-15T07:25:00.872Z,43872.00
2018-09-15T07:26:01.001Z,43456.00
2018-09-15T07:27:00.930Z,42464.00
2018-09-15T07:28:00.952Z,39104.00
2018-09-15T07:29:00.978Z,40992.00
2018-09-15T07:30:01.004Z,40928.00
2018-09-15T07:31:01.028Z,42336.00
2018-09-15T07:32:01.133Z,35232.00
2018-09-15T07:33:01.076Z,46208.00
2018-09-15T07:34:01.114Z,45568.00
2018-09-15T07:35:01.132Z,37504.00
2018-09-15T07:36:01.151Z,20000.00
2018-09-15T07:37:01.178Z,41472.00
2018-09-15T07:38:01.213Z,46624.00
2018-09-15T07:39:01.238Z,43392.00
2018-09-15T07:40:01.260Z,45696.00
2018-09-15T07:41:01.293Z,43936.00
2018-09-15T07:42:01.312Z,31680.00
2018-09-15T07:43:01.341Z,25376.00
2018-09-15T07:44:01.362Z,32128.00
2018-09-15T07:45:01.383Z,21376.00
2018-09-15T07:46:01.412Z,42752.00
2018-09-15T07:47:01.441Z,50528.00
2018-09-15T07:48:01.458Z,27776.00
2018-09-15T07:49:01.506Z,49536.00
2018-09-15T07:50:01.510Z,46336.00
2018-09-15T07:51:01.534Z,35104.00
2018-09-15T07:52:01.560Z,47232.00
2018-09-15T07:53:01.594Z,49280.00
2018-09-15T07:54:01.611Z,24032.00
2018-09-15T07:55:01.636Z,23328.00
2018-09-15T07:56:01.658Z,45472.00
2018-09-15T07:57:01.682Z,23360.00
2018-09-15T07:58:01.780Z,21312.00
2018-09-15T07:59:01.739Z,46112.00
2018-09-15T08:00:01.762Z,43392.00
2018-09-15T08:01:01.787Z,44224.00
2018-09-15T08:02:01.855Z,43648.00
2018-09-15T08:03:01.846Z,41696.00
2018-09-15T08:04:01.858Z,35392.00
2018-09-15T08:05:01.886Z,43776.00
2018-09-15T08:06:01.908Z,46176.00
2018-09-15T08:07:01.932Z,48480.00
2018-09-15T08:08:01.955Z,49664.00
2018-09-15T08:09:01.984Z,52224.00
2018-09-15T08:10:02.004Z,52480.00
2018-09-15T08:11:02.077Z,52352.00
2018-09-15T08:12:02.059Z,52672.00
2018-09-15T08:13:02.085Z,41152.00
2018-09-15T08:14:02.112Z,54528.00
2018-09-15T08:15:02.137Z,54208.00
2018-09-15T08:16:02.158Z,21216.00
2018-09-15T08:17:02.186Z,20096.00
2018-09-15T08:18:02.208Z,19168.00
2018-09-15T08:19:02.246Z,19072.00
2018-09-15T08:20:02.262Z,18368.00
2018-09-15T08:21:02.288Z,31616.00
2018-09-15T08:22:02.312Z,20480.00
2018-09-15T08:23:02.346Z,17760.00
2018-09-15T08:24:02.369Z,14892.00
2018-09-15T08:25:02.387Z,14976.00
2018-09-15T08:26:02.425Z,13672.00
2018-09-15T08:27:02.438Z,13908.00
2018-09-15T08:28:02.465Z,14208.00
2018-09-15T08:29:02.489Z,15428.00
2018-09-15T08:30:02.562Z,16524.00
2018-09-15T08:31:02.540Z,17568.00
2018-09-15T08:32:02.603Z,18688.00
2018-09-15T08:33:02.586Z,17280.00
2018-09-15T08:34:02.602Z,16632.00
2018-09-15T08:35:02.639Z,16096.00
2018-09-15T08:36:02.653Z,17148.00
2018-09-15T08:37:02.676Z,18432.00
2018-09-15T08:38:02.697Z,18016.00
2018-09-15T08:39:02.729Z,16496.00
2018-09-15T08:40:02.750Z,14360.00
2018-09-15T08:41:02.766Z,11576.00
2018-09-15T08:42:02.798Z,10844.00
2018-09-15T08:43:02.812Z,9640.00
2018-09-15T08:44:02.841Z,8312.00
2018-09-15T08:45:02.858Z,9088.00
2018-09-15T08:46:02.885Z,9592.00
2018-09-15T08:47:02.910Z,8672.00
2018-09-15T08:48:02.929Z,8828.00
2018-09-15T08:49:02.950Z,9432.00
2018-09-15T08:50:02.976Z,10016.00
2018-09-15T08:51:03.002Z,10228.00
2018-09-15T08:52:03.019Z,12072.00
2018-09-15T08:53:03.042Z,12200.00
2018-09-15T08:54:03.073Z,10784.00
2018-09-15T08:55:03.089Z,9520.00
2018-09-15T08:56:03.127Z,8136.00
2018-09-15T08:57:03.131Z,7668.00
2018-09-15T08:58:03.161Z,8276.00
2018-09-15T08:59:03.173Z,9492.00
2018-09-15T09:00:03.209Z,9900.00
2018-09-15T09:01:03.218Z,11072.00
2018-09-15T09:02:03.265Z,12464.00
2018-09-15T09:03:03.276Z,13840.00
2018-09-15T09:04:03.295Z,15304.00
2018-09-15T09:05:03.305Z,15236.00
2018-09-15T09:06:03.333Z,15040.00
2018-09-15T09:07:03.352Z,13992.00
2018-09-15T09:08:03.384Z,14008.00
2018-09-15T09:09:03.392Z,12744.00
2018-09-15T09:10:03.430Z,12440.00
2018-09-15T09:11:03.433Z,13044.00
2018-09-15T09:12:03.462Z,11368.00
2018-09-15T09:13:03.480Z,10512.00
2018-09-15T09:14:03.502Z,9448.00
2018-09-15T09:15:03.530Z,9848.00
2018-09-15T09:16:03.544Z,9472.00
2018-09-15T09:17:03.568Z,9844.00
2018-09-15T09:18:03.591Z,9676.00
2018-09-15T09:19:03.626Z,9956.00
2018-09-15T09:20:03.668Z,10208.00
2018-09-15T09:21:03.650Z,10440.00
2018-09-15T09:22:03.673Z,10556.00
2018-09-15T09:23:03.697Z,10560.00
2018-09-15T09:24:03.718Z,10864.00
2018-09-15T09:25:03.738Z,11384.00
2018-09-15T09:26:03.840Z,12080.00
2018-09-15T09:27:03.779Z,12412.00
2018-09-15T09:28:03.802Z,12988.00
2018-09-15T09:29:03.824Z,13260.00
2018-09-15T09:30:03.851Z,12472.00
2018-09-15T09:31:03.869Z,11300.00
2018-09-15T09:32:03.892Z,10560.00
2018-09-15T09:33:03.962Z,11300.00
2018-09-15T09:34:03.936Z,11848.00
2018-09-15T09:35:03.969Z,11736.00
2018-09-15T09:36:03.981Z,12876.00
2018-09-15T09:37:04.136Z,14164.00
2018-09-15T09:38:04.023Z,14644.00
2018-09-15T09:39:04.046Z,13872.00
2018-09-15T09:40:04.064Z,13056.00
2018-09-15T09:41:04.083Z,12560.00
2018-09-15T09:42:04.113Z,13220.00
2018-09-15T09:43:04.128Z,13180.00
2018-09-15T09:44:04.146Z,12760.00
2018-09-15T09:45:04.170Z,12464.00
2018-09-15T09:46:04.193Z,9620.00
2018-09-15T09:47:04.215Z,8176.00
2018-09-15T09:48:04.282Z,8060.00
2018-09-15T09:49:04.253Z,8992.00
2018-09-15T09:50:04.277Z,8012.00
2018-09-15T09:51:04.306Z,7880.00
2018-09-15T09:52:04.455Z,7992.00
2018-09-15T09:53:04.339Z,8928.00
2018-09-15T09:54:04.365Z,8348.00
2018-09-15T09:55:04.388Z,8780.00
2018-09-15T09:56:04.408Z,8016.00
2018-09-15T09:57:04.434Z,8028.00
2018-09-15T09:58:04.447Z,7624.00
2018-09-15T09:59:04.524Z,7528.00
2018-09-15T10:00:04.505Z,8596.00
2018-09-15T10:01:04.528Z,8808.00
2018-09-15T10:02:04.560Z,9008.00
2018-09-15T10:03:04.558Z,9276.00
2018-09-15T10:04:04.573Z,9548.00
2018-09-15T10:05:04.597Z,9532.00
2018-09-15T10:06:04.621Z,9580.00
2018-09-15T10:07:04.653Z,9676.00
2018-09-15T10:08:04.661Z,8364.00
2018-09-15T10:09:04.685Z,9108.00
2018-09-15T10:10:04.720Z,8868.00
2018-09-15T10:11:04.731Z,8816.00
2018-09-15T10:12:04.751Z,8504.00
2018-09-15T10:13:04.777Z,8732.00
2018-09-15T10:14:04.792Z,9208.00
2018-09-15T10:15:04.818Z,9040.00
2018-09-15T10:16:04.838Z,8552.00
2018-09-15T10:17:04.860Z,7908.00
2018-09-15T10:18:04.886Z,7336.00
2018-09-15T10:19:04.904Z,7508.00
2018-09-15T10:20:04.914Z,7632.00
2018-09-15T10:21:04.937Z,8600.00
2018-09-15T10:22:04.981Z,8684.00
2018-09-15T10:23:04.989Z,8624.00
2018-09-15T10:24:05.000Z,8232.00
2018-09-15T10:25:05.025Z,8504.00
2018-09-15T10:26:05.044Z,7364.00
2018-09-15T10:27:05.072Z,8436.00
2018-09-15T10:28:05.085Z,7576.00
2018-09-15T10:29:05.108Z,8164.00
2018-09-15T10:30:05.132Z,8628.00
2018-09-15T10:31:05.150Z,8908.00
2018-09-15T10:32:05.220Z,8876.00
2018-09-15T10:33:05.189Z,8616.00
2018-09-15T10:34:05.218Z,8436.00
2018-09-15T10:35:05.243Z,8236.00
2018-09-15T10:36:05.251Z,8276.00
2018-09-15T10:37:05.278Z,8244.00
2018-09-15T10:38:05.298Z,8352.00
2018-09-15T10:39:05.333Z,8524.00
2018-09-15T10:40:05.340Z,8684.00
2018-09-15T10:41:05.362Z,9140.00
2018-09-15T10:42:05.378Z,9484.00
2018-09-15T10:43:05.401Z,10112.00
2018-09-15T10:44:05.421Z,9700.00
2018-09-15T10:45:05.448Z,11080.00
2018-09-15T10:46:05.478Z,11332.00
2018-09-15T10:47:05.486Z,10284.00
2018-09-15T10:48:05.514Z,10556.00
2018-09-15T10:49:05.529Z,11860.00
2018-09-15T10:50:05.550Z,12420.00
2018-09-15T10:51:05.594Z,12588.00
2018-09-15T10:52:05.596Z,12732.00
2018-09-15T10:53:05.609Z,11684.00
2018-09-15T10:54:05.643Z,12628.00
2018-09-15T10:55:05.657Z,11656.00
2018-09-15T10:56:05.676Z,11532.00
2018-09-15T10:57:05.700Z,12304.00
2018-09-15T10:58:05.727Z,13512.00
2018-09-15T10:59:05.748Z,13996.00
2018-09-15T11:00:05.772Z,13780.00
2018-09-15T11:01:05.781Z,13448.00
2018-09-15T11:02:05.809Z,13384.00
2018-09-15T11:03:05.831Z,14200.00
2018-09-15T11:04:05.855Z,14188.00
2018-09-15T11:05:05.870Z,14364.00
2018-09-15T11:06:05.892Z,13752.00
2018-09-15T11:07:05.911Z,13136.00
2018-09-15T11:08:05.936Z,12828.00
2018-09-15T11:09:05.961Z,12488.00
2018-09-15T11:10:05.976Z,12572.00
2018-09-15T11:11:05.997Z,12296.00
2018-09-15T11:12:06.021Z,12452.00
2018-09-15T11:13:06.097Z,12632.00
2018-09-15T11:14:06.061Z,13960.00
2018-09-15T11:15:06.083Z,14216.00
2018-09-15T11:16:06.112Z,14148.00
2018-09-15T11:17:06.126Z,13728.00
2018-09-15T11:18:06.149Z,13488.00
2018-09-15T11:19:06.170Z,13644.00
2018-09-15T11:20:06.205Z,13800.00
2018-09-15T11:21:06.220Z,13648.00
2018-09-15T11:22:06.235Z,13964.00
2018-09-15T11:23:06.259Z,13332.00
2018-09-15T11:24:06.281Z,12132.00
2018-09-15T11:25:06.321Z,11052.00
2018-09-15T11:26:06.325Z,10500.00
2018-09-15T11:27:06.344Z,10908.00
2018-09-15T11:28:06.370Z,10560.00
2018-09-15T11:29:06.446Z,10512.00
2018-09-15T11:30:06.414Z,10748.00
2018-09-15T11:31:06.437Z,10148.00
2018-09-15T11:32:06.459Z,9612.00
2018-09-15T11:33:06.487Z,9464.00
2018-09-15T11:34:06.523Z,9532.00
2018-09-15T11:35:06.526Z,9472.00
2018-09-15T11:36:06.544Z,9708.00
2018-09-15T11:37:06.566Z,10548.00
2018-09-15T11:38:06.597Z,11292.00
2018-09-15T11:39:06.659Z,11080.00
2018-09-15T11:40:06.634Z,10576.00
2018-09-15T11:41:06.679Z,10096.00
2018-09-15T11:42:06.676Z,10508.00
2018-09-15T11:43:06.709Z,10588.00
2018-09-15T11:44:06.723Z,10112.00
2018-09-15T11:45:06.743Z,9968.00
2018-09-15T11:46:06.768Z,9908.00
2018-09-15T11:47:06.792Z,8932.00
2018-09-15T11:48:06.811Z,8412.00
2018-09-15T11:49:06.832Z,8240.00
2018-09-15T11:50:06.872Z,8248.00
2018-09-15T11:51:06.880Z,8916.00
2018-09-15T11:52:06.906Z,9896.00
2018-09-15T11:53:06.918Z,10216.00
2018-09-15T11:54:06.951Z,10428.00
2018-09-15T11:55:06.968Z,11100.00
2018-09-15T11:56:06.990Z,11568.00
2018-09-15T11:57:07.014Z,12164.00
2018-09-15T11:58:07.036Z,12552.00
2018-09-15T11:59:07.056Z,13064.00
2018-09-15T12:00:07.115Z,12224.00
2018-09-15T12:01:07.112Z,12128.00
2018-09-15T12:02:07.164Z,11224.00
2018-09-15T12:03:07.144Z,11084.00
2018-09-15T12:04:07.169Z,11348.00
2018-09-15T12:05:07.195Z,11576.00
2018-09-15T12:06:07.218Z,12376.00
2018-09-15T12:07:07.238Z,12464.00
2018-09-15T12:08:07.252Z,11596.00
2018-09-15T12:09:07.284Z,11628.00
2018-09-15T12:10:07.302Z,11728.00
2018-09-15T12:11:07.326Z,11696.00
2018-09-15T12:12:07.344Z,11432.00
2018-09-15T12:13:07.369Z,10720.00
2018-09-15T12:14:07.420Z,9928.00
2018-09-15T12:15:07.411Z,9160.00
2018-09-15T12:16:07.438Z,8428.00
2018-09-15T12:17:07.465Z,7760.00
2018-09-15T12:18:07.480Z,6996.00
2018-09-15T12:19:07.502Z,6204.00
2018-09-15T12:20:07.527Z,5700.00
2018-09-15T12:21:07.547Z,5328.00
2018-09-15T12:22:07.577Z,4992.00
2018-09-15T12:23:07.614Z,4756.00
2018-09-15T12:24:07.613Z,4468.00